sensor_id;sensor_type;location;lat;lon;timestamp;P1;durP1;ratioP1;P2;durP2;ratioP2
40635;SDS011;26642;55.766;37.828;2023-09-18T00:00:53;12.32;;;8.55;;
40635;SDS011;26642;55.766;37.828;2023-09-18T00:03:21;11.77;;;7.82;;
40635;SDS011;26642;55.766;37.828;2023-09-18T00:05:50;15.25;;;8.85;;
40635;SDS011;26642;55.766;37.828;2023-09-18T00:08:17;12.95;;;8.50;;
40635;SDS011;26642;55.766;37.828;2023-09-18T00:10:52;10.90;;;7.97;;
40635;SDS011;26642;55.766;37.828;2023-09-18T00:13:19;13.85;;;8.68;;
40635;SDS011;26642;55.766;37.828;2023-09-18T00:15:45;10.15;;;7.97;;
40635;SDS011;26642;55.766;37.828;2023-09-18T00:18:14;9.95;;;8.38;;
40635;SDS011;26642;55.766;37.828;2023-09-18T00:20:40;11.27;;;8.48;;
40635;SDS011;26642;55.766;37.828;2023-09-18T00:23:07;11.38;;;7.80;;
40635;SDS011;26642;55.766;37.828;2023-09-18T00:25:34;12.88;;;8.30;;
40635;SDS011;26642;55.766;37.828;2023-09-18T00:28:00;13.35;;;8.15;;
40635;SDS011;26642;55.766;37.828;2023-09-18T00:30:26;10.38;;;7.70;;
40635;SDS011;26642;55.766;37.828;2023-09-18T00:32:53;13.43;;;8.32;;
40635;SDS011;26642;55.766;37.828;2023-09-18T00:35:19;10.57;;;7.50;;
40635;SDS011;26642;55.766;37.828;2023-09-18T00:37:47;10.10;;;7.38;;
40635;SDS011;26642;55.766;37.828;2023-09-18T00:40:14;12.02;;;8.57;;
40635;SDS011;26642;55.766;37.828;2023-09-18T00:42:40;11.30;;;7.88;;
40635;SDS011;26642;55.766;37.828;2023-09-18T00:45:06;9.98;;;8.00;;
40635;SDS011;26642;55.766;37.828;2023-09-18T00:47:34;11.90;;;7.53;;
40635;SDS011;26642;55.766;37.828;2023-09-18T00:50:02;11.35;;;8.02;;
40635;SDS011;26642;55.766;37.828;2023-09-18T00:52:28;11.45;;;7.40;;
40635;SDS011;26642;55.766;37.828;2023-09-18T00:54:55;14.38;;;7.72;;
40635;SDS011;26642;55.766;37.828;2023-09-18T00:57:21;11.63;;;8.23;;
40635;SDS011;26642;55.766;37.828;2023-09-18T00:59:48;15.77;;;8.43;;
40635;SDS011;26642;55.766;37.828;2023-09-18T01:02:14;13.95;;;8.20;;
40635;SDS011;26642;55.766;37.828;2023-09-18T01:04:41;11.43;;;8.88;;
40635;SDS011;26642;55.766;37.828;2023-09-18T01:07:09;10.32;;;7.70;;
40635;SDS011;26642;55.766;37.828;2023-09-18T01:09:35;10.18;;;7.93;;
40635;SDS011;26642;55.766;37.828;2023-09-18T01:19:37;10.52;;;8.15;;
40635;SDS011;26642;55.766;37.828;2023-09-18T01:22:07;8.57;;;6.72;;
40635;SDS011;26642;55.766;37.828;2023-09-18T01:24:34;11.80;;;7.13;;
40635;SDS011;26642;55.766;37.828;2023-09-18T01:27:01;10.70;;;7.60;;
40635;SDS011;26642;55.766;37.828;2023-09-18T01:29:29;10.85;;;6.85;;
40635;SDS011;26642;55.766;37.828;2023-09-18T01:31:55;9.07;;;7.40;;
40635;SDS011;26642;55.766;37.828;2023-09-18T01:34:25;10.20;;;6.88;;
40635;SDS011;26642;55.766;37.828;2023-09-18T01:36:53;9.80;;;7.03;;
40635;SDS011;26642;55.766;37.828;2023-09-18T01:39:21;9.23;;;6.75;;
40635;SDS011;26642;55.766;37.828;2023-09-18T01:41:47;9.32;;;6.60;;
40635;SDS011;26642;55.766;37.828;2023-09-18T01:44:14;8.45;;;6.45;;
40635;SDS011;26642;55.766;37.828;2023-09-18T01:46:40;10.75;;;6.40;;
40635;SDS011;26642;55.766;37.828;2023-09-18T01:49:07;11.18;;;7.10;;
40635;SDS011;26642;55.766;37.828;2023-09-18T01:51:33;11.95;;;6.90;;
40635;SDS011;26642;55.766;37.828;2023-09-18T01:54:00;11.43;;;6.82;;
40635;SDS011;26642;55.766;37.828;2023-09-18T01:56:26;13.65;;;6.72;;
40635;SDS011;26642;55.766;37.828;2023-09-18T01:58:52;10.48;;;6.95;;
40635;SDS011;26642;55.766;37.828;2023-09-18T02:01:19;9.38;;;6.85;;
40635;SDS011;26642;55.766;37.828;2023-09-18T02:03:45;9.32;;;6.28;;
40635;SDS011;26642;55.766;37.828;2023-09-18T02:06:12;8.40;;;6.90;;
40635;SDS011;26642;55.766;37.828;2023-09-18T02:08:38;9.40;;;6.60;;
40635;SDS011;26642;55.766;37.828;2023-09-18T02:11:05;10.95;;;6.32;;
40635;SDS011;26642;55.766;37.828;2023-09-18T02:13:31;7.93;;;5.88;;
40635;SDS011;26642;55.766;37.828;2023-09-18T02:15:57;9.02;;;6.35;;
40635;SDS011;26642;55.766;37.828;2023-09-18T02:18:24;9.35;;;6.85;;
40635;SDS011;26642;55.766;37.828;2023-09-18T02:20:50;8.85;;;6.57;;
40635;SDS011;26642;55.766;37.828;2023-09-18T02:23:16;9.13;;;6.57;;
40635;SDS011;26642;55.766;37.828;2023-09-18T02:25:44;9.13;;;6.60;;
40635;SDS011;26642;55.766;37.828;2023-09-18T02:28:10;9.80;;;6.47;;
40635;SDS011;26642;55.766;37.828;2023-09-18T02:30:36;10.70;;;6.03;;
40635;SDS011;26642;55.766;37.828;2023-09-18T02:33:03;8.32;;;5.93;;
40635;SDS011;26642;55.766;37.828;2023-09-18T02:35:30;8.88;;;6.25;;
40635;SDS011;26642;55.766;37.828;2023-09-18T02:37:56;9.73;;;6.40;;
40635;SDS011;26642;55.766;37.828;2023-09-18T02:40:22;8.20;;;5.70;;
40635;SDS011;26642;55.766;37.828;2023-09-18T02:42:48;8.32;;;6.20;;
40635;SDS011;26642;55.766;37.828;2023-09-18T02:45:15;8.65;;;5.93;;
40635;SDS011;26642;55.766;37.828;2023-09-18T02:47:41;6.88;;;5.85;;
40635;SDS011;26642;55.766;37.828;2023-09-18T02:50:08;9.38;;;5.82;;
40635;SDS011;26642;55.766;37.828;2023-09-18T02:52:36;10.30;;;6.75;;
40635;SDS011;26642;55.766;37.828;2023-09-18T02:55:02;7.82;;;6.32;;
40635;SDS011;26642;55.766;37.828;2023-09-18T02:57:29;8.73;;;6.47;;
40635;SDS011;26642;55.766;37.828;2023-09-18T02:59:56;8.35;;;6.38;;
40635;SDS011;26642;55.766;37.828;2023-09-18T03:02:22;8.70;;;6.38;;
40635;SDS011;26642;55.766;37.828;2023-09-18T03:04:49;11.00;;;6.38;;
40635;SDS011;26642;55.766;37.828;2023-09-18T03:07:15;9.80;;;6.82;;
40635;SDS011;26642;55.766;37.828;2023-09-18T03:09:41;10.13;;;6.15;;
40635;SDS011;26642;55.766;37.828;2023-09-18T03:12:08;7.72;;;6.30;;
40635;SDS011;26642;55.766;37.828;2023-09-18T03:14:35;10.27;;;6.32;;
40635;SDS011;26642;55.766;37.828;2023-09-18T03:17:01;9.20;;;6.30;;
40635;SDS011;26642;55.766;37.828;2023-09-18T03:19:27;10.38;;;7.00;;
40635;SDS011;26642;55.766;37.828;2023-09-18T03:21:54;8.10;;;5.78;;
40635;SDS011;26642;55.766;37.828;2023-09-18T03:24:20;9.75;;;6.85;;
40635;SDS011;26642;55.766;37.828;2023-09-18T03:26:46;8.75;;;6.55;;
40635;SDS011;26642;55.766;37.828;2023-09-18T03:29:14;8.32;;;6.20;;
40635;SDS011;26642;55.766;37.828;2023-09-18T03:31:41;10.25;;;6.50;;
40635;SDS011;26642;55.766;37.828;2023-09-18T03:34:07;8.45;;;6.18;;
40635;SDS011;26642;55.766;37.828;2023-09-18T03:36:34;7.55;;;5.53;;
40635;SDS011;26642;55.766;37.828;2023-09-18T03:39:02;8.00;;;5.90;;
40635;SDS011;26642;55.766;37.828;2023-09-18T03:41:30;7.47;;;5.43;;
40635;SDS011;26642;55.766;37.828;2023-09-18T03:44:00;8.77;;;5.88;;
40635;SDS011;26642;55.766;37.828;2023-09-18T03:46:26;7.55;;;5.75;;
40635;SDS011;26642;55.766;37.828;2023-09-18T03:48:52;7.50;;;5.25;;
40635;SDS011;26642;55.766;37.828;2023-09-18T03:51:20;6.78;;;5.70;;
40635;SDS011;26642;55.766;37.828;2023-09-18T03:53:46;6.57;;;4.95;;
40635;SDS011;26642;55.766;37.828;2023-09-18T03:56:13;6.55;;;5.38;;
40635;SDS011;26642;55.766;37.828;2023-09-18T03:58:40;7.50;;;5.28;;
40635;SDS011;26642;55.766;37.828;2023-09-18T04:01:07;6.93;;;5.57;;
40635;SDS011;26642;55.766;37.828;2023-09-18T04:03:34;7.85;;;5.07;;
40635;SDS011;26642;55.766;37.828;2023-09-18T04:06:01;6.75;;;5.32;;
40635;SDS011;26642;55.766;37.828;2023-09-18T04:08:28;6.95;;;5.15;;
40635;SDS011;26642;55.766;37.828;2023-09-18T04:10:54;6.57;;;5.70;;
40635;SDS011;26642;55.766;37.828;2023-09-18T04:13:23;7.35;;;5.60;;
40635;SDS011;26642;55.766;37.828;2023-09-18T04:15:50;7.90;;;5.63;;
40635;SDS011;26642;55.766;37.828;2023-09-18T04:18:22;7.18;;;5.60;;
40635;SDS011;26642;55.766;37.828;2023-09-18T04:20:49;7.28;;;5.50;;
40635;SDS011;26642;55.766;37.828;2023-09-18T04:23:24;8.02;;;5.30;;
40635;SDS011;26642;55.766;37.828;2023-09-18T04:25:51;6.95;;;5.47;;
40635;SDS011;26642;55.766;37.828;2023-09-18T04:28:18;7.65;;;5.15;;
40635;SDS011;26642;55.766;37.828;2023-09-18T04:30:45;6.88;;;5.15;;
40635;SDS011;26642;55.766;37.828;2023-09-18T04:33:15;6.18;;;5.20;;
40635;SDS011;26642;55.766;37.828;2023-09-18T04:35:42;8.82;;;4.78;;
40635;SDS011;26642;55.766;37.828;2023-09-18T04:38:10;6.72;;;5.60;;
40635;SDS011;26642;55.766;37.828;2023-09-18T04:40:37;6.68;;;5.25;;
40635;SDS011;26642;55.766;37.828;2023-09-18T04:43:03;8.95;;;5.78;;
40635;SDS011;26642;55.766;37.828;2023-09-18T04:45:30;7.13;;;5.20;;
40635;SDS011;26642;55.766;37.828;2023-09-18T04:47:57;7.15;;;5.30;;
40635;SDS011;26642;55.766;37.828;2023-09-18T04:50:23;7.38;;;5.40;;
40635;SDS011;26642;55.766;37.828;2023-09-18T04:52:52;7.60;;;5.10;;
40635;SDS011;26642;55.766;37.828;2023-09-18T04:55:20;7.05;;;5.30;;
40635;SDS011;26642;55.766;37.828;2023-09-18T04:57:46;8.07;;;5.53;;
40635;SDS011;26642;55.766;37.828;2023-09-18T05:00:14;6.35;;;5.53;;
40635;SDS011;26642;55.766;37.828;2023-09-18T05:02:40;11.85;;;5.57;;
40635;SDS011;26642;55.766;37.828;2023-09-18T05:05:06;9.05;;;5.78;;
40635;SDS011;26642;55.766;37.828;2023-09-18T05:07:34;6.68;;;5.10;;
40635;SDS011;26642;55.766;37.828;2023-09-18T05:10:01;8.80;;;5.25;;
40635;SDS011;26642;55.766;37.828;2023-09-18T05:12:29;6.75;;;5.28;;
40635;SDS011;26642;55.766;37.828;2023-09-18T05:14:56;15.57;;;10.52;;
40635;SDS011;26642;55.766;37.828;2023-09-18T05:17:27;18.50;;;14.02;;
40635;SDS011;26642;55.766;37.828;2023-09-18T05:20:06;18.67;;;13.82;;
40635;SDS011;26642;55.766;37.828;2023-09-18T05:22:32;16.92;;;12.50;;
40635;SDS011;26642;55.766;37.828;2023-09-18T05:24:58;18.38;;;12.93;;
40635;SDS011;26642;55.766;37.828;2023-09-18T05:27:25;15.57;;;11.30;;
40635;SDS011;26642;55.766;37.828;2023-09-18T05:29:51;15.68;;;10.68;;
40635;SDS011;26642;55.766;37.828;2023-09-18T05:32:18;11.40;;;8.73;;
40635;SDS011;26642;55.766;37.828;2023-09-18T05:34:45;12.05;;;8.38;;
40635;SDS011;26642;55.766;37.828;2023-09-18T05:37:11;8.65;;;7.10;;
40635;SDS011;26642;55.766;37.828;2023-09-18T05:39:38;9.55;;;7.25;;
40635;SDS011;26642;55.766;37.828;2023-09-18T05:42:05;9.07;;;6.53;;
40635;SDS011;26642;55.766;37.828;2023-09-18T05:44:31;13.23;;;6.63;;
40635;SDS011;26642;55.766;37.828;2023-09-18T05:46:59;8.30;;;6.20;;
40635;SDS011;26642;55.766;37.828;2023-09-18T05:49:28;11.80;;;5.50;;
40635;SDS011;26642;55.766;37.828;2023-09-18T05:51:55;8.15;;;5.10;;
40635;SDS011;26642;55.766;37.828;2023-09-18T05:54:21;8.57;;;5.75;;
40635;SDS011;26642;55.766;37.828;2023-09-18T05:56:47;10.68;;;5.72;;
40635;SDS011;26642;55.766;37.828;2023-09-18T05:59:13;11.38;;;5.47;;
40635;SDS011;26642;55.766;37.828;2023-09-18T06:01:41;10.05;;;5.05;;
40635;SDS011;26642;55.766;37.828;2023-09-18T06:04:07;7.55;;;5.45;;
40635;SDS011;26642;55.766;37.828;2023-09-18T06:06:35;10.75;;;5.45;;
40635;SDS011;26642;55.766;37.828;2023-09-18T06:09:04;6.88;;;5.28;;
40635;SDS011;26642;55.766;37.828;2023-09-18T06:11:32;7.25;;;5.15;;
40635;SDS011;26642;55.766;37.828;2023-09-18T06:13:58;7.60;;;5.20;;
40635;SDS011;26642;55.766;37.828;2023-09-18T06:16:24;7.97;;;5.00;;
40635;SDS011;26642;55.766;37.828;2023-09-18T06:18:50;8.98;;;5.10;;
40635;SDS011;26642;55.766;37.828;2023-09-18T06:21:16;6.00;;;4.65;;
40635;SDS011;26642;55.766;37.828;2023-09-18T06:23:42;7.13;;;4.95;;
40635;SDS011;26642;55.766;37.828;2023-09-18T06:26:08;7.18;;;5.10;;
40635;SDS011;26642;55.766;37.828;2023-09-18T06:28:34;6.50;;;4.80;;
40635;SDS011;26642;55.766;37.828;2023-09-18T06:31:00;5.55;;;4.90;;
40635;SDS011;26642;55.766;37.828;2023-09-18T06:33:26;5.47;;;4.80;;
40635;SDS011;26642;55.766;37.828;2023-09-18T06:35:52;7.90;;;5.20;;
40635;SDS011;26642;55.766;37.828;2023-09-18T06:38:18;8.75;;;4.90;;
40635;SDS011;26642;55.766;37.828;2023-09-18T06:40:46;6.13;;;4.70;;
40635;SDS011;26642;55.766;37.828;2023-09-18T06:43:12;6.50;;;4.70;;
40635;SDS011;26642;55.766;37.828;2023-09-18T06:45:38;7.00;;;4.75;;
40635;SDS011;26642;55.766;37.828;2023-09-18T06:48:04;5.30;;;4.72;;
40635;SDS011;26642;55.766;37.828;2023-09-18T06:50:30;6.60;;;4.75;;
40635;SDS011;26642;55.766;37.828;2023-09-18T06:52:56;7.07;;;4.95;;
40635;SDS011;26642;55.766;37.828;2023-09-18T06:55:22;6.07;;;4.75;;
40635;SDS011;26642;55.766;37.828;2023-09-18T06:57:48;6.93;;;4.55;;
40635;SDS011;26642;55.766;37.828;2023-09-18T07:00:17;6.00;;;4.78;;
40635;SDS011;26642;55.766;37.828;2023-09-18T07:02:46;9.88;;;4.65;;
40635;SDS011;26642;55.766;37.828;2023-09-18T07:05:12;6.00;;;4.38;;
40635;SDS011;26642;55.766;37.828;2023-09-18T07:07:39;5.55;;;4.43;;
40635;SDS011;26642;55.766;37.828;2023-09-18T07:10:05;8.02;;;4.55;;
40635;SDS011;26642;55.766;37.828;2023-09-18T07:12:31;4.95;;;4.28;;
40635;SDS011;26642;55.766;37.828;2023-09-18T07:14:59;5.85;;;4.35;;
40635;SDS011;26642;55.766;37.828;2023-09-18T07:17:29;5.20;;;4.22;;
40635;SDS011;26642;55.766;37.828;2023-09-18T07:19:55;5.32;;;4.63;;
40635;SDS011;26642;55.766;37.828;2023-09-18T07:22:22;8.07;;;4.78;;
40635;SDS011;26642;55.766;37.828;2023-09-18T07:24:48;6.63;;;4.80;;
40635;SDS011;26642;55.766;37.828;2023-09-18T07:27:14;6.13;;;4.85;;
40635;SDS011;26642;55.766;37.828;2023-09-18T07:29:41;8.43;;;4.88;;
40635;SDS011;26642;55.766;37.828;2023-09-18T07:32:07;5.32;;;4.65;;
40635;SDS011;26642;55.766;37.828;2023-09-18T07:34:34;9.05;;;4.30;;
40635;SDS011;26642;55.766;37.828;2023-09-18T07:37:01;6.55;;;4.63;;
40635;SDS011;26642;55.766;37.828;2023-09-18T07:39:27;7.50;;;4.65;;
40635;SDS011;26642;55.766;37.828;2023-09-18T07:41:53;8.93;;;4.97;;
40635;SDS011;26642;55.766;37.828;2023-09-18T07:44:21;7.28;;;4.95;;
40635;SDS011;26642;55.766;37.828;2023-09-18T07:46:47;9.25;;;5.57;;
40635;SDS011;26642;55.766;37.828;2023-09-18T07:49:13;12.50;;;8.00;;
40635;SDS011;26642;55.766;37.828;2023-09-18T07:51:40;7.50;;;6.15;;
40635;SDS011;26642;55.766;37.828;2023-09-18T07:54:06;8.98;;;5.93;;
40635;SDS011;26642;55.766;37.828;2023-09-18T07:56:33;9.43;;;6.43;;
40635;SDS011;26642;55.766;37.828;2023-09-18T07:59:01;14.98;;;6.93;;
40635;SDS011;26642;55.766;37.828;2023-09-18T08:01:28;10.07;;;6.47;;
40635;SDS011;26642;55.766;37.828;2023-09-18T08:03:56;7.97;;;5.72;;
40635;SDS011;26642;55.766;37.828;2023-09-18T08:06:24;7.70;;;5.30;;
40635;SDS011;26642;55.766;37.828;2023-09-18T08:08:51;6.07;;;4.97;;
40635;SDS011;26642;55.766;37.828;2023-09-18T08:11:18;6.53;;;5.28;;
40635;SDS011;26642;55.766;37.828;2023-09-18T08:13:44;8.40;;;5.10;;
40635;SDS011;26642;55.766;37.828;2023-09-18T08:16:11;5.60;;;4.85;;
40635;SDS011;26642;55.766;37.828;2023-09-18T08:18:40;11.07;;;5.18;;
40635;SDS011;26642;55.766;37.828;2023-09-18T08:21:07;10.75;;;5.20;;
40635;SDS011;26642;55.766;37.828;2023-09-18T08:23:35;7.68;;;5.38;;
40635;SDS011;26642;55.766;37.828;2023-09-18T08:26:02;7.30;;;5.13;;
40635;SDS011;26642;55.766;37.828;2023-09-18T08:28:29;8.80;;;5.97;;
40635;SDS011;26642;55.766;37.828;2023-09-18T08:30:55;8.27;;;5.65;;
40635;SDS011;26642;55.766;37.828;2023-09-18T08:33:23;7.00;;;5.30;;
40635;SDS011;26642;55.766;37.828;2023-09-18T08:35:51;10.50;;;5.35;;
40635;SDS011;26642;55.766;37.828;2023-09-18T08:38:17;7.97;;;5.50;;
40635;SDS011;26642;55.766;37.828;2023-09-18T08:40:43;6.82;;;5.43;;
40635;SDS011;26642;55.766;37.828;2023-09-18T08:43:11;7.38;;;5.05;;
40635;SDS011;26642;55.766;37.828;2023-09-18T08:45:40;7.18;;;5.70;;
40635;SDS011;26642;55.766;37.828;2023-09-18T08:48:09;8.80;;;5.68;;
40635;SDS011;26642;55.766;37.828;2023-09-18T08:50:35;7.43;;;5.00;;
40635;SDS011;26642;55.766;37.828;2023-09-18T08:53:02;10.15;;;6.05;;
40635;SDS011;26642;55.766;37.828;2023-09-18T08:55:29;11.45;;;5.85;;
40635;SDS011;26642;55.766;37.828;2023-09-18T08:57:58;10.25;;;6.07;;
40635;SDS011;26642;55.766;37.828;2023-09-18T09:00:25;9.57;;;6.47;;
40635;SDS011;26642;55.766;37.828;2023-09-18T09:02:51;7.82;;;6.00;;
40635;SDS011;26642;55.766;37.828;2023-09-18T09:05:20;8.65;;;5.20;;
40635;SDS011;26642;55.766;37.828;2023-09-18T09:07:48;7.35;;;5.57;;
40635;SDS011;26642;55.766;37.828;2023-09-18T09:10:14;10.63;;;5.82;;
40635;SDS011;26642;55.766;37.828;2023-09-18T09:12:54;6.10;;;5.35;;
40635;SDS011;26642;55.766;37.828;2023-09-18T09:15:21;7.57;;;5.05;;
40635;SDS011;26642;55.766;37.828;2023-09-18T09:17:48;6.85;;;5.70;;
40635;SDS011;26642;55.766;37.828;2023-09-18T09:20:15;5.30;;;4.80;;
40635;SDS011;26642;55.766;37.828;2023-09-18T09:22:43;6.45;;;5.30;;
40635;SDS011;26642;55.766;37.828;2023-09-18T09:27:51;7.05;;;5.50;;
40635;SDS011;26642;55.766;37.828;2023-09-18T09:30:19;9.07;;;5.80;;
40635;SDS011;26642;55.766;37.828;2023-09-18T09:32:49;20.50;;;16.23;;
40635;SDS011;26642;55.766;37.828;2023-09-18T09:35:26;16.55;;;13.60;;
40635;SDS011;26642;55.766;37.828;2023-09-18T09:38:13;12.27;;;10.75;;
40635;SDS011;26642;55.766;37.828;2023-09-18T09:40:41;13.07;;;9.70;;
40635;SDS011;26642;55.766;37.828;2023-09-18T09:43:09;11.68;;;8.25;;
40635;SDS011;26642;55.766;37.828;2023-09-18T09:45:36;9.45;;;7.55;;
40635;SDS011;26642;55.766;37.828;2023-09-18T09:48:04;7.97;;;7.05;;
40635;SDS011;26642;55.766;37.828;2023-09-18T09:50:31;10.15;;;6.72;;
40635;SDS011;26642;55.766;37.828;2023-09-18T09:52:58;8.57;;;6.65;;
40635;SDS011;26642;55.766;37.828;2023-09-18T09:55:31;9.75;;;6.93;;
40635;SDS011;26642;55.766;37.828;2023-09-18T09:57:59;10.93;;;7.13;;
40635;SDS011;26642;55.766;37.828;2023-09-18T10:00:36;10.10;;;7.25;;
40635;SDS011;26642;55.766;37.828;2023-09-18T10:03:08;11.65;;;7.22;;
40635;SDS011;26642;55.766;37.828;2023-09-18T10:05:36;8.63;;;6.88;;
40635;SDS011;26642;55.766;37.828;2023-09-18T10:10:36;8.75;;;6.70;;
40635;SDS011;26642;55.766;37.828;2023-09-18T10:13:05;9.45;;;7.10;;
40635;SDS011;26642;55.766;37.828;2023-09-18T10:15:34;11.52;;;7.65;;
40635;SDS011;26642;55.766;37.828;2023-09-18T10:18:07;12.73;;;7.18;;
40635;SDS011;26642;55.766;37.828;2023-09-18T10:20:39;9.57;;;7.07;;
40635;SDS011;26642;55.766;37.828;2023-09-18T10:23:12;9.40;;;6.88;;
40635;SDS011;26642;55.766;37.828;2023-09-18T10:25:46;9.52;;;6.45;;
40635;SDS011;26642;55.766;37.828;2023-09-18T10:28:13;8.63;;;6.53;;
40635;SDS011;26642;55.766;37.828;2023-09-18T10:30:40;9.43;;;6.60;;
40635;SDS011;26642;55.766;37.828;2023-09-18T10:33:08;9.27;;;6.30;;
40635;SDS011;26642;55.766;37.828;2023-09-18T10:35:35;10.95;;;6.78;;
40635;SDS011;26642;55.766;37.828;2023-09-18T10:38:02;6.38;;;5.38;;
40635;SDS011;26642;55.766;37.828;2023-09-18T10:40:28;8.98;;;6.47;;
40635;SDS011;26642;55.766;37.828;2023-09-18T10:42:56;8.82;;;5.95;;
40635;SDS011;26642;55.766;37.828;2023-09-18T10:45:23;7.68;;;5.45;;
40635;SDS011;26642;55.766;37.828;2023-09-18T10:47:51;6.70;;;6.00;;
40635;SDS011;26642;55.766;37.828;2023-09-18T10:50:25;6.43;;;5.70;;
40635;SDS011;26642;55.766;37.828;2023-09-18T10:52:52;6.68;;;5.38;;
40635;SDS011;26642;55.766;37.828;2023-09-18T10:55:18;6.93;;;4.88;;
40635;SDS011;26642;55.766;37.828;2023-09-18T10:58:03;6.35;;;5.10;;
40635;SDS011;26642;55.766;37.828;2023-09-18T11:00:29;6.43;;;5.20;;
40635;SDS011;26642;55.766;37.828;2023-09-18T11:03:13;8.35;;;5.85;;
40635;SDS011;26642;55.766;37.828;2023-09-18T11:05:39;7.93;;;5.72;;
40635;SDS011;26642;55.766;37.828;2023-09-18T11:08:25;7.80;;;5.97;;
40635;SDS011;26642;55.766;37.828;2023-09-18T11:10:55;6.32;;;5.30;;
40635;SDS011;26642;55.766;37.828;2023-09-18T11:13:28;7.63;;;5.50;;
40635;SDS011;26642;55.766;37.828;2023-09-18T11:15:59;8.63;;;5.63;;
40635;SDS011;26642;55.766;37.828;2023-09-18T11:18:31;8.57;;;6.05;;
40635;SDS011;26642;55.766;37.828;2023-09-18T11:21:08;8.00;;;6.03;;
40635;SDS011;26642;55.766;37.828;2023-09-18T11:23:35;7.00;;;5.85;;
40635;SDS011;26642;55.766;37.828;2023-09-18T11:26:11;8.90;;;6.35;;
40635;SDS011;26642;55.766;37.828;2023-09-18T11:28:37;8.10;;;6.35;;
40635;SDS011;26642;55.766;37.828;2023-09-18T11:31:04;8.20;;;6.30;;
40635;SDS011;26642;55.766;37.828;2023-09-18T11:35:57;8.57;;;7.13;;
40635;SDS011;26642;55.766;37.828;2023-09-18T11:38:24;8.65;;;6.47;;
40635;SDS011;26642;55.766;37.828;2023-09-18T11:40:51;9.73;;;7.00;;
40635;SDS011;26642;55.766;37.828;2023-09-18T11:43:24;8.52;;;6.97;;
40635;SDS011;26642;55.766;37.828;2023-09-18T11:45:52;10.57;;;7.00;;
40635;SDS011;26642;55.766;37.828;2023-09-18T11:48:22;11.95;;;7.07;;
40635;SDS011;26642;55.766;37.828;2023-09-18T11:50:55;9.50;;;7.43;;
40635;SDS011;26642;55.766;37.828;2023-09-18T11:53:22;8.82;;;7.25;;
40635;SDS011;26642;55.766;37.828;2023-09-18T11:55:49;9.27;;;7.03;;
40635;SDS011;26642;55.766;37.828;2023-09-18T11:58:15;8.45;;;6.85;;
40635;SDS011;26642;55.766;37.828;2023-09-18T12:00:42;10.50;;;7.50;;
40635;SDS011;26642;55.766;37.828;2023-09-18T12:08:22;9.23;;;7.15;;
40635;SDS011;26642;55.766;37.828;2023-09-18T12:10:52;9.45;;;8.00;;
40635;SDS011;26642;55.766;37.828;2023-09-18T12:13:18;8.55;;;7.65;;
40635;SDS011;26642;55.766;37.828;2023-09-18T12:15:45;10.07;;;7.40;;
40635;SDS011;26642;55.766;37.828;2023-09-18T12:18:13;10.13;;;7.80;;
40635;SDS011;26642;55.766;37.828;2023-09-18T12:20:47;9.93;;;8.07;;
40635;SDS011;26642;55.766;37.828;2023-09-18T12:23:13;10.15;;;7.88;;
40635;SDS011;26642;55.766;37.828;2023-09-18T12:25:40;7.72;;;6.88;;
40635;SDS011;26642;55.766;37.828;2023-09-18T12:28:07;9.05;;;7.40;;
40635;SDS011;26642;55.766;37.828;2023-09-18T12:30:33;8.55;;;7.30;;
40635;SDS011;26642;55.766;37.828;2023-09-18T12:33:00;9.45;;;7.47;;
40635;SDS011;26642;55.766;37.828;2023-09-18T12:35:27;9.00;;;7.35;;
40635;SDS011;26642;55.766;37.828;2023-09-18T12:37:55;8.65;;;7.68;;
40635;SDS011;26642;55.766;37.828;2023-09-18T12:40:25;8.55;;;7.65;;
40635;SDS011;26642;55.766;37.828;2023-09-18T12:42:53;9.30;;;8.40;;
40635;SDS011;26642;55.766;37.828;2023-09-18T12:45:20;10.70;;;7.88;;
40635;SDS011;26642;55.766;37.828;2023-09-18T12:47:46;9.60;;;7.43;;
40635;SDS011;26642;55.766;37.828;2023-09-18T12:50:13;8.85;;;7.15;;
40635;SDS011;26642;55.766;37.828;2023-09-18T12:52:40;8.80;;;7.72;;
40635;SDS011;26642;55.766;37.828;2023-09-18T12:55:07;8.70;;;7.32;;
40635;SDS011;26642;55.766;37.828;2023-09-18T12:57:33;7.88;;;7.07;;
40635;SDS011;26642;55.766;37.828;2023-09-18T12:59:59;10.45;;;7.70;;
40635;SDS011;26642;55.766;37.828;2023-09-18T13:02:36;9.07;;;7.50;;
40635;SDS011;26642;55.766;37.828;2023-09-18T13:05:02;8.40;;;7.00;;
40635;SDS011;26642;55.766;37.828;2023-09-18T13:07:29;7.13;;;6.38;;
40635;SDS011;26642;55.766;37.828;2023-09-18T13:10:00;7.63;;;6.85;;
40635;SDS011;26642;55.766;37.828;2023-09-18T13:12:41;10.02;;;7.38;;
40635;SDS011;26642;55.766;37.828;2023-09-18T13:15:08;8.60;;;6.75;;
40635;SDS011;26642;55.766;37.828;2023-09-18T13:17:39;7.53;;;6.65;;
40635;SDS011;26642;55.766;37.828;2023-09-18T13:20:20;8.00;;;6.47;;
40635;SDS011;26642;55.766;37.828;2023-09-18T13:22:50;6.82;;;6.07;;
40635;SDS011;26642;55.766;37.828;2023-09-18T13:25:20;9.30;;;6.80;;
40635;SDS011;26642;55.766;37.828;2023-09-18T13:27:47;9.38;;;6.57;;
40635;SDS011;26642;55.766;37.828;2023-09-18T13:30:14;6.90;;;6.07;;
40635;SDS011;26642;55.766;37.828;2023-09-18T13:32:42;10.70;;;6.93;;
40635;SDS011;26642;55.766;37.828;2023-09-18T13:35:09;8.27;;;6.57;;
40635;SDS011;26642;55.766;37.828;2023-09-18T13:37:37;9.30;;;6.32;;
40635;SDS011;26642;55.766;37.828;2023-09-18T13:40:05;7.93;;;6.32;;
40635;SDS011;26642;55.766;37.828;2023-09-18T13:42:42;8.65;;;7.03;;
40635;SDS011;26642;55.766;37.828;2023-09-18T13:45:08;7.80;;;6.07;;
40635;SDS011;26642;55.766;37.828;2023-09-18T13:47:36;7.57;;;6.38;;
40635;SDS011;26642;55.766;37.828;2023-09-18T13:50:03;8.10;;;6.20;;
40635;SDS011;26642;55.766;37.828;2023-09-18T13:52:30;10.27;;;6.55;;
40635;SDS011;26642;55.766;37.828;2023-09-18T13:54:57;9.43;;;6.32;;
40635;SDS011;26642;55.766;37.828;2023-09-18T13:57:24;12.45;;;6.65;;
40635;SDS011;26642;55.766;37.828;2023-09-18T13:59:50;12.05;;;7.25;;
40635;SDS011;26642;55.766;37.828;2023-09-18T14:02:17;7.65;;;5.80;;
40635;SDS011;26642;55.766;37.828;2023-09-18T14:04:44;8.57;;;6.18;;
40635;SDS011;26642;55.766;37.828;2023-09-18T14:07:10;8.32;;;6.43;;
40635;SDS011;26642;55.766;37.828;2023-09-18T14:09:37;8.57;;;6.28;;
40635;SDS011;26642;55.766;37.828;2023-09-18T14:12:04;8.50;;;6.65;;
40635;SDS011;26642;55.766;37.828;2023-09-18T14:14:32;8.60;;;6.03;;
40635;SDS011;26642;55.766;37.828;2023-09-18T14:17:00;9.32;;;6.75;;
40635;SDS011;26642;55.766;37.828;2023-09-18T14:19:27;8.60;;;6.25;;
40635;SDS011;26642;55.766;37.828;2023-09-18T14:21:53;8.90;;;6.20;;
40635;SDS011;26642;55.766;37.828;2023-09-18T14:24:20;9.45;;;6.95;;
40635;SDS011;26642;55.766;37.828;2023-09-18T14:26:47;8.63;;;6.70;;
40635;SDS011;26642;55.766;37.828;2023-09-18T14:29:14;9.15;;;6.07;;
40635;SDS011;26642;55.766;37.828;2023-09-18T14:31:40;11.15;;;7.22;;
40635;SDS011;26642;55.766;37.828;2023-09-18T14:34:07;12.43;;;6.95;;
40635;SDS011;26642;55.766;37.828;2023-09-18T14:36:34;11.27;;;6.70;;
40635;SDS011;26642;55.766;37.828;2023-09-18T14:39:01;10.15;;;7.18;;
40635;SDS011;26642;55.766;37.828;2023-09-18T14:41:28;9.73;;;6.85;;
40635;SDS011;26642;55.766;37.828;2023-09-18T14:43:54;11.07;;;6.70;;
40635;SDS011;26642;55.766;37.828;2023-09-18T14:46:23;10.40;;;7.65;;
40635;SDS011;26642;55.766;37.828;2023-09-18T14:48:49;7.57;;;6.78;;
40635;SDS011;26642;55.766;37.828;2023-09-18T14:51:15;7.32;;;6.30;;
40635;SDS011;26642;55.766;37.828;2023-09-18T14:53:43;10.27;;;6.78;;